sensor_id;sensor_type;location;lat;lon;timestamp;noise_LAeq;noise_LA_min;noise_LA_max;noise_LA01;noise_LA95
70245;Laerm;57637;49.272;8.590;2023-02-11T00:00:24;38.17;34.11;46.97;;
70245;Laerm;57637;49.272;8.590;2023-02-11T00:02:50;37.42;33.51;47.54;;
70245;Laerm;57637;49.272;8.590;2023-02-11T00:05:15;39.29;35.01;47.24;;
70245;Laerm;57637;49.272;8.590;2023-02-11T00:07:41;39.18;35.22;44.70;;
70245;Laerm;57637;49.272;8.590;2023-02-11T00:10:07;38.40;33.35;45.60;;
70245;Laerm;57637;49.272;8.590;2023-02-11T00:12:34;37.70;33.64;42.08;;
70245;Laerm;57637;49.272;8.590;2023-02-11T00:14:59;38.52;33.80;46.24;;
70245;Laerm;57637;49.272;8.590;2023-02-11T00:17:24;38.52;33.29;45.31;;
70245;Laerm;57637;49.272;8.590;2023-02-11T00:19:51;38.18;33.87;45.38;;
70245;Laerm;57637;49.272;8.590;2023-02-11T00:22:17;38.34;33.60;44.32;;
70245;Laerm;57637;49.272;8.590;2023-02-11T00:24:42;38.13;33.97;44.11;;
70245;Laerm;57637;49.272;8.590;2023-02-11T00:27:08;37.73;33.48;42.48;;
70245;Laerm;57637;49.272;8.590;2023-02-11T00:29:33;37.15;33.60;43.03;;
70245;Laerm;57637;49.272;8.590;2023-02-11T00:31:58;36.60;32.67;43.27;;
70245;Laerm;57637;49.272;8.590;2023-02-11T00:34:30;37.08;33.00;41.62;;
70245;Laerm;57637;49.272;8.590;2023-02-11T00:36:55;37.90;33.18;50.07;;
70245;Laerm;57637;49.272;8.590;2023-02-11T00:39:20;39.76;33.46;53.85;;
70245;Laerm;57637;49.272;8.590;2023-02-11T00:41:46;38.06;34.19;44.35;;
70245;Laerm;57637;49.272;8.590;2023-02-11T00:44:11;36.75;33.52;42.60;;
70245;Laerm;57637;49.272;8.590;2023-02-11T00:46:36;37.34;32.84;43.69;;
70245;Laerm;57637;49.272;8.590;2023-02-11T00:49:02;37.81;32.32;51.04;;
70245;Laerm;57637;49.272;8.590;2023-02-11T00:51:27;35.52;32.00;39.47;;
70245;Laerm;57637;49.272;8.590;2023-02-11T00:53:53;36.44;32.47;44.71;;
70245;Laerm;57637;49.272;8.590;2023-02-11T00:56:19;37.23;32.59;48.08;;
70245;Laerm;57637;49.272;8.590;2023-02-11T00:58:44;35.54;31.83;43.05;;
70245;Laerm;57637;49.272;8.590;2023-02-11T01:01:11;35.82;32.83;44.67;;
70245;Laerm;57637;49.272;8.590;2023-02-11T01:03:37;35.92;31.98;44.33;;
70245;Laerm;57637;49.272;8.590;2023-02-11T01:06:03;35.53;32.09;42.36;;
70245;Laerm;57637;49.272;8.590;2023-02-11T01:08:28;36.73;32.59;44.58;;
70245;Laerm;57637;49.272;8.590;2023-02-11T01:10:56;36.24;32.58;39.81;;
70245;Laerm;57637;49.272;8.590;2023-02-11T01:13:23;35.92;32.41;42.31;;
70245;Laerm;57637;49.272;8.590;2023-02-11T01:15:48;35.27;32.48;39.15;;
70245;Laerm;57637;49.272;8.590;2023-02-11T01:18:14;35.39;32.37;44.97;;
70245;Laerm;57637;49.272;8.590;2023-02-11T01:20:39;35.63;32.47;41.34;;
70245;Laerm;57637;49.272;8.590;2023-02-11T01:23:04;35.75;31.88;39.84;;
70245;Laerm;57637;49.272;8.590;2023-02-11T01:25:30;36.88;33.33;41.07;;
70245;Laerm;57637;49.272;8.590;2023-02-11T01:27:55;36.59;33.13;41.17;;
70245;Laerm;57637;49.272;8.590;2023-02-11T01:30:21;37.17;32.43;43.85;;
70245;Laerm;57637;49.272;8.590;2023-02-11T01:32:46;35.56;31.83;45.04;;
70245;Laerm;57637;49.272;8.590;2023-02-11T01:35:11;35.99;32.81;41.71;;
70245;Laerm;57637;49.272;8.590;2023-02-11T01:37:37;36.80;33.68;40.62;;
70245;Laerm;57637;49.272;8.590;2023-02-11T01:40:05;36.93;33.25;45.80;;
70245;Laerm;57637;49.272;8.590;2023-02-11T01:42:32;35.52;32.69;39.25;;
70245;Laerm;57637;49.272;8.590;2023-02-11T01:44:59;35.75;32.63;39.43;;
70245;Laerm;57637;49.272;8.590;2023-02-11T01:47:24;36.33;33.23;42.46;;
70245;Laerm;57637;49.272;8.590;2023-02-11T01:49:56;38.12;33.93;42.50;;
70245;Laerm;57637;49.272;8.590;2023-02-11T01:52:33;37.11;32.92;44.92;;
70245;Laerm;57637;49.272;8.590;2023-02-11T01:55:04;36.55;32.75;40.74;;
70245;Laerm;57637;49.272;8.590;2023-02-11T01:57:55;37.36;33.33;41.57;;
70245;Laerm;57637;49.272;8.590;2023-02-11T02:00:24;36.44;33.09;41.29;;
70245;Laerm;57637;49.272;8.590;2023-02-11T02:10:41;36.06;32.44;39.73;;
70245;Laerm;57637;49.272;8.590;2023-02-11T02:13:07;36.10;32.86;40.53;;
70245;Laerm;57637;49.272;8.590;2023-02-11T02:15:35;36.74;32.94;41.33;;
70245;Laerm;57637;49.272;8.590;2023-02-11T02:26:13;37.10;33.89;41.67;;
70245;Laerm;57637;49.272;8.590;2023-02-11T02:37:46;35.85;32.27;39.14;;
70245;Laerm;57637;49.272;8.590;2023-02-11T02:40:30;36.69;33.33;40.65;;
70245;Laerm;57637;49.272;8.590;2023-02-11T02:42:57;36.64;33.64;40.26;;
70245;Laerm;57637;49.272;8.590;2023-02-11T02:45:24;36.85;33.36;41.51;;
70245;Laerm;57637;49.272;8.590;2023-02-11T02:47:50;36.76;33.74;40.29;;
70245;Laerm;57637;49.272;8.590;2023-02-11T02:50:17;36.88;33.62;41.91;;
70245;Laerm;57637;49.272;8.590;2023-02-11T02:53:05;35.65;32.00;42.83;;
70245;Laerm;57637;49.272;8.590;2023-02-11T02:58:47;35.78;32.70;39.48;;
70245;Laerm;57637;49.272;8.590;2023-02-11T03:01:29;37.23;33.62;40.73;;
70245;Laerm;57637;49.272;8.590;2023-02-11T03:06:57;35.97;33.07;38.82;;
70245;Laerm;57637;49.272;8.590;2023-02-11T03:09:44;35.01;32.32;37.60;;
70245;Laerm;57637;49.272;8.590;2023-02-11T03:12:11;35.99;33.33;40.25;;
70245;Laerm;57637;49.272;8.590;2023-02-11T03:14:39;37.29;33.64;50.62;;
70245;Laerm;57637;49.272;8.590;2023-02-11T03:17:07;36.17;32.90;41.57;;
70245;Laerm;57637;49.272;8.590;2023-02-11T03:19:37;35.15;32.50;37.61;;
70245;Laerm;57637;49.272;8.590;2023-02-11T03:22:07;35.08;31.84;40.38;;
70245;Laerm;57637;49.272;8.590;2023-02-11T03:24:37;35.92;33.01;39.43;;
70245;Laerm;57637;49.272;8.590;2023-02-11T03:27:12;37.49;33.08;52.83;;
70245;Laerm;57637;49.272;8.590;2023-02-11T03:30:12;38.66;33.96;51.55;;
70245;Laerm;57637;49.272;8.590;2023-02-11T03:32:38;36.44;32.56;40.49;;
70245;Laerm;57637;49.272;8.590;2023-02-11T03:35:16;36.44;32.80;40.68;;
70245;Laerm;57637;49.272;8.590;2023-02-11T03:38:08;39.65;33.59;54.91;;
70245;Laerm;57637;49.272;8.590;2023-02-11T03:40:38;38.04;33.64;42.18;;
70245;Laerm;57637;49.272;8.590;2023-02-11T03:43:08;36.57;33.16;39.37;;
70245;Laerm;57637;49.272;8.590;2023-02-11T03:45:36;37.33;33.49;41.07;;
70245;Laerm;57637;49.272;8.590;2023-02-11T03:48:15;37.93;34.63;41.43;;
70245;Laerm;57637;49.272;8.590;2023-02-11T03:50:44;36.87;34.12;41.41;;
70245;Laerm;57637;49.272;8.590;2023-02-11T03:53:11;36.75;34.04;39.83;;
70245;Laerm;57637;49.272;8.590;2023-02-11T03:55:38;37.33;34.12;42.09;;
70245;Laerm;57637;49.272;8.590;2023-02-11T03:58:05;38.36;34.12;43.76;;
70245;Laerm;57637;49.272;8.590;2023-02-11T04:00:33;37.75;34.13;46.31;;
70245;Laerm;57637;49.272;8.590;2023-02-11T04:02:59;37.93;34.41;47.10;;
70245;Laerm;57637;49.272;8.590;2023-02-11T04:05:24;37.36;33.04;41.71;;
70245;Laerm;57637;49.272;8.590;2023-02-11T04:07:50;37.77;34.23;41.81;;
70245;Laerm;57637;49.272;8.590;2023-02-11T04:10:15;37.27;33.36;41.15;;
70245;Laerm;57637;49.272;8.590;2023-02-11T04:12:41;37.24;33.72;41.94;;
70245;Laerm;57637;49.272;8.590;2023-02-11T04:15:06;37.32;33.84;41.39;;
70245;Laerm;57637;49.272;8.590;2023-02-11T04:17:32;38.44;34.44;46.66;;
70245;Laerm;57637;49.272;8.590;2023-02-11T04:19:57;38.85;34.86;48.87;;
70245;Laerm;57637;49.272;8.590;2023-02-11T04:22:22;37.21;34.08;42.98;;
70245;Laerm;57637;49.272;8.590;2023-02-11T04:24:48;37.92;34.24;42.38;;
70245;Laerm;57637;49.272;8.590;2023-02-11T04:27:13;37.87;34.13;42.00;;
70245;Laerm;57637;49.272;8.590;2023-02-11T04:29:38;38.25;34.34;50.42;;
70245;Laerm;57637;49.272;8.590;2023-02-11T04:32:04;38.71;34.89;44.18;;
70245;Laerm;57637;49.272;8.590;2023-02-11T04:34:29;38.45;34.73;42.69;;
70245;Laerm;57637;49.272;8.590;2023-02-11T04:36:55;37.40;34.42;40.92;;
70245;Laerm;57637;49.272;8.590;2023-02-11T04:39:20;37.68;34.52;41.12;;
70245;Laerm;57637;49.272;8.590;2023-02-11T04:41:45;36.70;33.86;41.68;;
70245;Laerm;57637;49.272;8.590;2023-02-11T04:44:11;36.92;33.46;45.76;;
70245;Laerm;57637;49.272;8.590;2023-02-11T04:46:36;36.49;33.58;39.45;;
70245;Laerm;57637;49.272;8.590;2023-02-11T04:49:02;37.11;33.65;40.34;;
70245;Laerm;57637;49.272;8.590;2023-02-11T04:51:27;40.12;33.99;54.24;;
70245;Laerm;57637;49.272;8.590;2023-02-11T04:53:52;37.00;33.75;41.13;;
70245;Laerm;57637;49.272;8.590;2023-02-11T04:56:18;37.29;34.11;40.46;;
70245;Laerm;57637;49.272;8.590;2023-02-11T04:58:43;37.73;34.12;47.05;;
70245;Laerm;57637;49.272;8.590;2023-02-11T05:01:11;37.21;34.19;41.01;;
70245;Laerm;57637;49.272;8.590;2023-02-11T05:03:37;37.49;34.49;42.35;;
70245;Laerm;57637;49.272;8.590;2023-02-11T05:06:03;38.39;35.01;46.92;;
70245;Laerm;57637;49.272;8.590;2023-02-11T05:08:29;38.57;34.59;44.41;;
70245;Laerm;57637;49.272;8.590;2023-02-11T05:10:54;38.45;35.36;52.07;;
70245;Laerm;57637;49.272;8.590;2023-02-11T05:13:20;39.74;35.69;47.71;;
70245;Laerm;57637;49.272;8.590;2023-02-11T05:15:46;39.99;36.09;46.08;;
70245;Laerm;57637;49.272;8.590;2023-02-11T05:18:11;38.94;34.97;44.78;;
70245;Laerm;57637;49.272;8.590;2023-02-11T05:20:42;39.08;35.78;44.65;;
70245;Laerm;57637;49.272;8.590;2023-02-11T05:23:07;38.91;35.22;50.44;;
70245;Laerm;57637;49.272;8.590;2023-02-11T05:25:33;38.26;34.79;55.27;;
70245;Laerm;57637;49.272;8.590;2023-02-11T05:27:58;38.50;35.03;48.45;;
70245;Laerm;57637;49.272;8.590;2023-02-11T05:30:24;38.44;34.41;46.97;;
70245;Laerm;57637;49.272;8.590;2023-02-11T05:32:50;38.57;35.01;50.80;;
70245;Laerm;57637;49.272;8.590;2023-02-11T05:35:15;38.55;35.12;45.77;;
70245;Laerm;57637;49.272;8.590;2023-02-11T05:37:41;38.82;35.35;53.28;;
70245;Laerm;57637;49.272;8.590;2023-02-11T05:40:07;39.72;35.92;51.56;;
70245;Laerm;57637;49.272;8.590;2023-02-11T05:42:32;40.80;35.47;56.83;;
70245;Laerm;57637;49.272;8.590;2023-02-11T05:44:58;40.01;35.49;47.78;;
70245;Laerm;57637;49.272;8.590;2023-02-11T05:47:23;39.11;35.71;48.09;;
70245;Laerm;57637;49.272;8.590;2023-02-11T05:49:48;38.95;35.63;47.65;;
70245;Laerm;57637;49.272;8.590;2023-02-11T05:52:14;39.46;36.12;46.02;;
70245;Laerm;57637;49.272;8.590;2023-02-11T05:54:39;39.11;35.69;43.09;;
70245;Laerm;57637;49.272;8.590;2023-02-11T05:57:05;39.72;35.58;45.87;;
70245;Laerm;57637;49.272;8.590;2023-02-11T05:59:30;39.37;35.57;46.83;;
70245;Laerm;57637;49.272;8.590;2023-02-11T06:01:55;39.22;35.64;44.72;;
70245;Laerm;57637;49.272;8.590;2023-02-11T06:04:21;40.85;35.16;54.49;;
70245;Laerm;57637;49.272;8.590;2023-02-11T06:06:46;38.71;35.09;50.16;;
70245;Laerm;57637;49.272;8.590;2023-02-11T06:09:11;38.56;35.67;53.98;;
70245;Laerm;57637;49.272;8.590;2023-02-11T06:11:37;40.43;35.54;54.91;;
70245;Laerm;57637;49.272;8.590;2023-02-11T06:14:02;38.65;35.20;46.64;;
70245;Laerm;57637;49.272;8.590;2023-02-11T06:16:28;39.97;35.24;47.81;;
70245;Laerm;57637;49.272;8.590;2023-02-11T06:18:53;40.16;35.31;64.17;;
70245;Laerm;57637;49.272;8.590;2023-02-11T06:21:18;43.98;34.95;64.66;;
70245;Laerm;57637;49.272;8.590;2023-02-11T06:23:44;41.02;36.03;62.17;;
70245;Laerm;57637;49.272;8.590;2023-02-11T06:26:15;40.45;35.33;53.91;;
70245;Laerm;57637;49.272;8.590;2023-02-11T06:28:41;40.49;35.53;63.62;;
70245;Laerm;57637;49.272;8.590;2023-02-11T06:31:07;44.81;35.68;59.79;;
70245;Laerm;57637;49.272;8.590;2023-02-11T06:33:34;41.89;35.75;57.37;;
70245;Laerm;57637;49.272;8.590;2023-02-11T06:36:00;42.82;36.30;62.14;;
70245;Laerm;57637;49.272;8.590;2023-02-11T06:38:26;44.81;36.52;65.56;;
70245;Laerm;57637;49.272;8.590;2023-02-11T06:40:51;57.57;37.12;73.59;;
70245;Laerm;57637;49.272;8.590;2023-02-11T06:43:16;52.81;37.68;73.22;;
70245;Laerm;57637;49.272;8.590;2023-02-11T06:45:42;50.15;37.62;72.14;;
70245;Laerm;57637;49.272;8.590;2023-02-11T06:48:07;56.67;37.69;78.32;;
70245;Laerm;57637;49.272;8.590;2023-02-11T06:50:32;52.00;36.17;74.25;;
70245;Laerm;57637;49.272;8.590;2023-02-11T06:52:58;45.80;36.25;65.24;;
70245;Laerm;57637;49.272;8.590;2023-02-11T06:55:24;46.40;36.48;69.62;;
70245;Laerm;57637;49.272;8.590;2023-02-11T06:57:50;50.44;36.33;73.26;;
70245;Laerm;57637;49.272;8.590;2023-02-11T07:00:15;53.98;37.30;73.55;;
70245;Laerm;57637;49.272;8.590;2023-02-11T07:02:41;48.06;35.56;68.25;;
70245;Laerm;57637;49.272;8.590;2023-02-11T07:05:06;44.83;36.27;64.56;;
70245;Laerm;57637;49.272;8.590;2023-02-11T07:07:32;48.43;37.56;71.56;;
70245;Laerm;57637;49.272;8.590;2023-02-11T07:09:58;42.81;37.04;61.56;;
70245;Laerm;57637;49.272;8.590;2023-02-11T07:12:23;49.64;37.38;66.29;;
70245;Laerm;57637;49.272;8.590;2023-02-11T07:14:49;43.40;37.07;62.25;;
70245;Laerm;57637;49.272;8.590;2023-02-11T07:17:14;41.58;37.54;55.44;;
70245;Laerm;57637;49.272;8.590;2023-02-11T07:19:40;41.76;36.99;52.91;;
70245;Laerm;57637;49.272;8.590;2023-02-11T07:22:05;40.67;36.37;57.56;;
70245;Laerm;57637;49.272;8.590;2023-02-11T07:24:31;41.99;36.53;58.04;;
70245;Laerm;57637;49.272;8.590;2023-02-11T07:26:56;41.73;36.83;57.72;;
70245;Laerm;57637;49.272;8.590;2023-02-11T07:29:21;40.35;36.42;47.01;;
70245;Laerm;57637;49.272;8.590;2023-02-11T07:31:47;41.53;36.32;53.90;;
70245;Laerm;57637;49.272;8.590;2023-02-11T07:34:12;41.97;37.57;56.09;;
70245;Laerm;57637;49.272;8.590;2023-02-11T07:36:37;42.46;36.79;51.85;;
70245;Laerm;57637;49.272;8.590;2023-02-11T07:39:03;42.82;37.25;59.57;;
70245;Laerm;57637;49.272;8.590;2023-02-11T07:41:28;45.90;39.16;55.61;;
70245;Laerm;57637;49.272;8.590;2023-02-11T07:43:54;48.91;38.99;59.58;;
70245;Laerm;57637;49.272;8.590;2023-02-11T07:46:22;44.21;38.19;56.86;;
70245;Laerm;57637;49.272;8.590;2023-02-11T07:48:48;43.26;37.65;57.61;;
70245;Laerm;57637;49.272;8.590;2023-02-11T07:51:19;41.43;37.14;52.27;;
70245;Laerm;57637;49.272;8.590;2023-02-11T07:53:45;44.13;37.28;69.60;;
70245;Laerm;57637;49.272;8.590;2023-02-11T07:56:12;45.30;38.28;68.39;;
70245;Laerm;57637;49.272;8.590;2023-02-11T07:58:38;44.81;37.49;64.65;;
70245;Laerm;57637;49.272;8.590;2023-02-11T08:01:08;44.26;37.02;66.65;;
70245;Laerm;57637;49.272;8.590;2023-02-11T08:03:35;43.53;37.45;57.20;;
70245;Laerm;57637;49.272;8.590;2023-02-11T08:06:08;42.62;36.89;54.92;;
70245;Laerm;57637;49.272;8.590;2023-02-11T08:08:34;52.20;37.33;84.89;;
70245;Laerm;57637;49.272;8.590;2023-02-11T08:11:08;42.00;36.63;52.40;;
70245;Laerm;57637;49.272;8.590;2023-02-11T08:13:35;44.04;37.68;63.04;;
70245;Laerm;57637;49.272;8.590;2023-02-11T08:16:00;44.02;37.08;60.12;;
70245;Laerm;57637;49.272;8.590;2023-02-11T08:18:25;44.52;37.52;57.89;;
70245;Laerm;57637;49.272;8.590;2023-02-11T08:20:51;44.52;38.65;57.27;;
70245;Laerm;57637;49.272;8.590;2023-02-11T08:23:16;45.20;38.15;56.58;;
70245;Laerm;57637;49.272;8.590;2023-02-11T08:25:41;44.50;37.14;60.63;;
70245;Laerm;57637;49.272;8.590;2023-02-11T08:28:07;50.74;38.60;70.91;;
70245;Laerm;57637;49.272;8.590;2023-02-11T08:30:33;57.58;38.16;74.87;;
70245;Laerm;57637;49.272;8.590;2023-02-11T08:32:59;47.14;37.93;71.88;;
70245;Laerm;57637;49.272;8.590;2023-02-11T08:35:24;52.03;37.83;71.90;;
70245;Laerm;57637;49.272;8.590;2023-02-11T08:37:50;43.21;37.63;57.94;;
70245;Laerm;57637;49.272;8.590;2023-02-11T08:40:16;44.28;37.16;60.32;;
70245;Laerm;57637;49.272;8.590;2023-02-11T08:42:41;44.25;38.99;61.80;;
70245;Laerm;57637;49.272;8.590;2023-02-11T08:45:07;43.64;39.23;53.93;;
70245;Laerm;57637;49.272;8.590;2023-02-11T08:47:35;42.87;39.49;54.69;;
70245;Laerm;57637;49.272;8.590;2023-02-11T08:50:00;43.08;39.08;50.94;;
70245;Laerm;57637;49.272;8.590;2023-02-11T08:52:25;43.45;38.81;61.24;;
70245;Laerm;57637;49.272;8.590;2023-02-11T08:54:51;42.74;38.36;50.70;;
70245;Laerm;57637;49.272;8.590;2023-02-11T08:57:16;48.86;39.52;67.97;;
70245;Laerm;57637;49.272;8.590;2023-02-11T08:59:41;46.10;38.90;64.55;;
70245;Laerm;57637;49.272;8.590;2023-02-11T09:02:11;50.84;38.62;71.34;;
70245;Laerm;57637;49.272;8.590;2023-02-11T09:04:37;50.40;36.97;71.31;;
70245;Laerm;57637;49.272;8.590;2023-02-11T09:07:02;43.42;36.96;65.49;;
70245;Laerm;57637;49.272;8.590;2023-02-11T09:09:27;48.88;35.14;61.74;;
70245;Laerm;57637;49.272;8.590;2023-02-11T09:11:53;49.37;36.43;67.05;;
70245;Laerm;57637;49.272;8.590;2023-02-11T09:14:22;43.49;36.29;61.72;;
70245;Laerm;57637;49.272;8.590;2023-02-11T09:16:48;39.60;35.32;52.00;;
70245;Laerm;57637;49.272;8.590;2023-02-11T09:19:14;39.88;35.62;52.07;;
70245;Laerm;57637;49.272;8.590;2023-02-11T09:21:40;44.27;36.75;63.40;;
70245;Laerm;57637;49.272;8.590;2023-02-11T09:24:05;48.76;36.82;65.54;;
70245;Laerm;57637;49.272;8.590;2023-02-11T09:26:33;44.81;36.55;64.62;;
70245;Laerm;57637;49.272;8.590;2023-02-11T09:29:00;40.62;36.59;50.53;;
70245;Laerm;57637;49.272;8.590;2023-02-11T09:31:27;40.13;35.77;52.29;;
70245;Laerm;57637;49.272;8.590;2023-02-11T09:33:55;42.05;35.83;50.96;;
70245;Laerm;57637;49.272;8.590;2023-02-11T09:36:23;41.73;36.05;59.25;;
70245;Laerm;57637;49.272;8.590;2023-02-11T09:38:50;40.18;35.69;49.95;;
70245;Laerm;57637;49.272;8.590;2023-02-11T09:43:47;45.84;35.43;61.77;;
70245;Laerm;57637;49.272;8.590;2023-02-11T09:46:15;46.50;36.73;67.41;;
70245;Laerm;57637;49.272;8.590;2023-02-11T09:48:43;47.17;36.13;66.74;;
70245;Laerm;57637;49.272;8.590;2023-02-11T09:51:20;44.80;35.95;64.68;;
70245;Laerm;57637;49.272;8.590;2023-02-11T09:53:53;48.03;35.01;64.75;;
70245;Laerm;57637;49.272;8.590;2023-02-11T09:56:27;47.66;35.19;60.11;;
70245;Laerm;57637;49.272;8.590;2023-02-11T09:58:52;45.51;35.65;62.74;;
70245;Laerm;57637;49.272;8.590;2023-02-11T10:01:30;48.08;37.07;64.69;;
70245;Laerm;57637;49.272;8.590;2023-02-11T10:06:50;44.52;36.54;69.49;;
70245;Laerm;57637;49.272;8.590;2023-02-11T10:12:51;45.50;34.83;63.80;;
70245;Laerm;57637;49.272;8.590;2023-02-11T10:15:50;41.43;35.81;53.26;;
70245;Laerm;57637;49.272;8.590;2023-02-11T10:21:08;39.87;35.12;56.06;;
70245;Laerm;57637;49.272;8.590;2023-02-11T10:23:40;41.41;35.60;55.13;;
70245;Laerm;57637;49.272;8.590;2023-02-11T10:26:15;42.82;35.67;61.17;;
70245;Laerm;57637;49.272;8.590;2023-02-11T10:28:43;46.62;35.23;58.01;;
70245;Laerm;57637;49.272;8.590;2023-02-11T10:31:35;46.14;33.87;61.59;;
70245;Laerm;57637;49.272;8.590;2023-02-11T10:34:06;46.20;34.85;59.32;;
70245;Laerm;57637;49.272;8.590;2023-02-11T10:36:36;48.24;35.18;65.00;;
70245;Laerm;57637;49.272;8.590;2023-02-11T10:39:22;44.44;35.59;60.48;;
70245;Laerm;57637;49.272;8.590;2023-02-11T10:41:59;46.26;35.91;67.27;;
70245;Laerm;57637;49.272;8.590;2023-02-11T10:44:30;46.03;36.00;65.16;;
70245;Laerm;57637;49.272;8.590;2023-02-11T10:46:58;41.33;35.56;59.00;;
70245;Laerm;57637;49.272;8.590;2023-02-11T10:49:38;46.35;35.37;60.41;;
70245;Laerm;57637;49.272;8.590;2023-02-11T10:52:26;44.24;40.78;55.03;;
70245;Laerm;57637;49.272;8.590;2023-02-11T10:57:27;44.44;40.48;61.86;;
70245;Laerm;57637;49.272;8.590;2023-02-11T10:59:58;44.68;40.45;58.28;;
70245;Laerm;57637;49.272;8.590;2023-02-11T11:02:31;44.66;39.65;56.86;;
70245;Laerm;57637;49.272;8.590;2023-02-11T11:05:02;45.12;40.15;61.69;;
70245;Laerm;57637;49.272;8.590;2023-02-11T11:07:31;45.88;39.63;68.30;;
70245;Laerm;57637;49.272;8.590;2023-02-11T11:12:50;45.57;39.99;72.36;;
70245;Laerm;57637;49.272;8.590;2023-02-11T11:15:16;57.39;40.46;76.11;;
70245;Laerm;57637;49.272;8.590;2023-02-11T11:17:43;45.14;40.19;61.75;;
70245;Laerm;57637;49.272;8.590;2023-02-11T11:20:20;43.76;35.68;61.80;;
70245;Laerm;57637;49.272;8.590;2023-02-11T11:22:48;40.21;35.62;54.94;;
70245;Laerm;57637;49.272;8.590;2023-02-11T11:25:28;42.37;36.30;63.43;;
70245;Laerm;57637;49.272;8.590;2023-02-11T11:27:59;43.55;35.62;54.83;;
70245;Laerm;57637;49.272;8.590;2023-02-11T11:30:31;52.09;35.69;69.00;;
70245;Laerm;57637;49.272;8.590;2023-02-11T11:32:58;42.77;34.35;60.07;;
70245;Laerm;57637;49.272;8.590;2023-02-11T11:35:27;54.45;36.07;70.80;;
70245;Laerm;57637;49.272;8.590;2023-02-11T11:37:58;48.65;38.43;58.45;;
70245;Laerm;57637;49.272;8.590;2023-02-11T11:40:27;47.09;34.46;66.88;;
70245;Laerm;57637;49.272;8.590;2023-02-11T11:43:04;48.36;36.62;59.29;;
70245;Laerm;57637;49.272;8.590;2023-02-11T11:45:31;50.09;34.13;68.62;;
70245;Laerm;57637;49.272;8.590;2023-02-11T11:48:07;47.08;34.90;68.00;;
70245;Laerm;57637;49.272;8.590;2023-02-11T11:50:46;48.48;35.13;63.42;;
70245;Laerm;57637;49.272;8.590;2023-02-11T11:56:08;49.75;33.85;66.02;;
70245;Laerm;57637;49.272;8.590;2023-02-11T11:58:35;45.97;34.24;67.89;;
70245;Laerm;57637;49.272;8.590;2023-02-11T12:09:32;41.67;34.47;64.22;;
70245;Laerm;57637;49.272;8.590;2023-02-11T12:12:13;56.69;35.31;74.22;;
70245;Laerm;57637;49.272;8.590;2023-02-11T12:14:51;40.84;34.19;55.10;;
70245;Laerm;57637;49.272;8.590;2023-02-11T12:20:32;39.84;34.10;56.47;;
70245;Laerm;57637;49.272;8.590;2023-02-11T12:28:50;43.26;34.28;63.94;;
70245;Laerm;57637;49.272;8.590;2023-02-11T12:31:47;40.85;34.68;60.01;;
70245;Laerm;57637;49.272;8.590;2023-02-11T12:37:28;42.32;33.30;70.17;;
70245;Laerm;57637;49.272;8.590;2023-02-11T12:40:14;40.71;34.63;54.48;;
70245;Laerm;57637;49.272;8.590;2023-02-11T12:42:49;40.11;34.60;54.58;;
70245;Laerm;57637;49.272;8.590;2023-02-11T12:45:50;40.03;34.99;55.70;;
70245;Laerm;57637;49.272;8.590;2023-02-11T12:48:41;45.27;34.67;65.57;;
70245;Laerm;57637;49.272;8.590;2023-02-11T12:54:10;42.86;33.25;60.51;;
70245;Laerm;57637;49.272;8.590;2023-02-11T12:59:32;45.26;34.59;57.33;;
70245;Laerm;57637;49.272;8.590;2023-02-11T13:02:00;46.44;36.23;57.62;;
70245;Laerm;57637;49.272;8.590;2023-02-11T13:04:34;45.92;35.03;61.25;;
70245;Laerm;57637;49.272;8.590;2023-02-11T13:07:08;43.49;33.57;59.92;;
70245;Laerm;57637;49.272;8.590;2023-02-11T13:09:41;43.00;33.51;57.43;;
70245;Laerm;57637;49.272;8.590;2023-02-11T13:12:09;45.79;33.24;57.71;;
70245;Laerm;57637;49.272;8.590;2023-02-11T13:14:58;46.83;33.58;57.78;;
70245;Laerm;57637;49.272;8.590;2023-02-11T13:17:35;39.37;33.12;55.41;;
70245;Laerm;57637;49.272;8.590;2023-02-11T13:20:31;38.79;32.98;48.56;;
70245;Laerm;57637;49.272;8.590;2023-02-11T13:23:07;40.49;32.00;67.68;;
70245;Laerm;57637;49.272;8.590;2023-02-11T13:25:52;42.86;33.03;65.57;;
70245;Laerm;57637;49.272;8.590;2023-02-11T13:28:34;43.42;33.42;64.90;;
70245;Laerm;57637;49.272;8.590;2023-02-11T13:31:03;43.67;33.89;64.74;;
70245;Laerm;57637;49.272;8.590;2023-02-11T13:33:36;49.22;33.59;66.23;;
70245;Laerm;57637;49.272;8.590;2023-02-11T13:38:30;51.25;37.29;64.02;;
70245;Laerm;57637;49.272;8.590;2023-02-11T13:41:17;44.21;36.52;66.69;;
70245;Laerm;57637;49.272;8.590;2023-02-11T13:43:57;42.12;33.91;59.02;;
70245;Laerm;57637;49.272;8.590;2023-02-11T13:46:24;44.71;34.62;64.39;;
70245;Laerm;57637;49.272;8.590;2023-02-11T13:48:52;49.78;37.83;66.12;;
70245;Laerm;57637;49.272;8.590;2023-02-11T13:51:41;45.64;38.11;57.04;;
70245;Laerm;57637;49.272;8.590;2023-02-11T13:54:19;43.63;39.37;58.70;;
70245;Laerm;57637;49.272;8.590;2023-02-11T13:57:14;57.22;39.76;71.51;;
70245;Laerm;57637;49.272;8.590;2023-02-11T14:02:27;44.58;35.43;58.09;;
70245;Laerm;57637;49.272;8.590;2023-02-11T14:10:56;39.33;34.12;52.88;;
70245;Laerm;57637;49.272;8.590;2023-02-11T14:16:16;38.57;33.68;52.32;;
70245;Laerm;57637;49.272;8.590;2023-02-11T14:23:38;41.48;33.61;60.20;;
70245;Laerm;57637;49.272;8.590;2023-02-11T14:26:17;46.70;36.00;68.39;;
70245;Laerm;57637;49.272;8.590;2023-02-11T14:28:51;50.83;34.59;78.30;;
70245;Laerm;57637;49.272;8.590;2023-02-11T14:31:28;41.32;33.30;54.20;;
70245;Laerm;57637;49.272;8.590;2023-02-11T14:37:32;40.59;33.88;61.51;;
70245;Laerm;57637;49.272;8.590;2023-02-11T14:40:03;43.00;34.51;69.90;;
70245;Laerm;57637;49.272;8.590;2023-02-11T14:42:35;43.17;35.24;59.94;;
70245;Laerm;57637;49.272;8.590;2023-02-11T14:45:07;41.11;36.50;54.90;;
70245;Laerm;57637;49.272;8.590;2023-02-11T14:47:59;42.90;35.24;65.30;;
70245;Laerm;57637;49.272;8.590;2023-02-11T14:50:45;46.57;34.16;75.77;;
70245;Laerm;57637;49.272;8.590;2023-02-11T14:53:21;43.30;34.63;67.82;;
70245;Laerm;57637;49.272;8.590;2023-02-11T14:55:49;41.99;36.12;61.19;;
70245;Laerm;57637;49.272;8.590;2023-02-11T14:58:17;46.09;36.36;64.81;;
70245;Laerm;57637;49.272;8.590;2023-02-11T15:00:58;46.12;37.96;64.04;;
70245;Laerm;57637;49.272;8.590;2023-02-11T15:05:57;43.16;36.42;58.09;;
70245;Laerm;57637;49.272;8.590;2023-02-11T15:08:23;41.58;35.42;58.32;;
70245;Laerm;57637;49.272;8.590;2023-02-11T15:10:48;44.27;37.51;61.53;;
70245;Laerm;57637;49.272;8.590;2023-02-11T15:13:17;41.86;35.44;61.72;;
70245;Laerm;57637;49.272;8.590;2023-02-11T15:15:44;43.86;35.45;67.32;;
70245;Laerm;57637;49.272;8.590;2023-02-11T15:18:16;40.72;35.79;53.61;;
70245;Laerm;57637;49.272;8.590;2023-02-11T15:20:46;39.18;34.67;48.90;;
70245;Laerm;57637;49.272;8.590;2023-02-11T15:23:20;49.28;37.53;67.94;;
70245;Laerm;57637;49.272;8.590;2023-02-11T15:25:46;41.90;35.32;56.77;;
70245;Laerm;57637;49.272;8.590;2023-02-11T15:28:25;42.84;35.50;53.09;;
70245;Laerm;57637;49.272;8.590;2023-02-11T15:33:22;42.78;35.62;60.55;;
70245;Laerm;57637;49.272;8.590;2023-02-11T15:35:49;42.13;34.20;63.14;;
70245;Laerm;57637;49.272;8.590;2023-02-11T15:38:16;41.01;33.55;65.68;;
70245;Laerm;57637;49.272;8.590;2023-02-11T15:41:00;38.87;34.43;54.97;;